Flight Track Log - Related Links

Times and Time Zones

All times are in EDT time to prevent confusion due to time zone crossing. See the UAL6129 flight status page for this flight to view local times or setup timezone preferences in your user account.

Time Position Orientation Groundspeed Altitude Reporting Facility
EDT Latitude Longitude Course Direction KTS MPH feet Rate Location/Type
Thu 03:45:16 PM 41.9333 -87.9167 166° South 171 197 2,100  Level Chicago TRACON
Thu 03:46:24 PM 41.8711 -87.9064 173° South 207 238 4,000 2,000 Climbing Chicago Center
Thu 03:48:28 PM 41.7364 -87.8056 151° Southeast 274 315 8,500 1,957 Climbing Chicago Center
Thu 03:49:31 PM 41.6633 -87.7511 151° Southeast 301 346 10,100 1,680 Climbing Chicago Center
Thu 03:50:33 PM 41.5836 -87.6911 151° Southeast 318 366 12,000 1,887 Climbing Chicago Center
Thu 03:51:00 PM 41.3941 -87.5647 166° South  Level FlightAware Approximate
Thu 03:51:35 PM 41.4969 -87.6261 151° Southeast 328 377 14,000  Level Chicago Center
Thu 03:52:37 PM 41.4089 -87.5706 155° Southeast 353 406 14,700 677 Climbing Chicago Center
Thu 03:53:39 PM 41.2961 -87.5497 172° South 380 437 15,400 800 Climbing Chicago Center
Thu 03:56:22 PM 41.0139 -87.4831 169° South 399 459 17,700 880 Climbing Indianapolis Center
Thu 03:57:24 PM 40.9031 -87.4503 167° South 404 465 18,700 1,065 Climbing Indianapolis Center
Thu 03:58:26 PM 40.7664 -87.4178 170° South 414 476 19,900 1,073 Climbing Indianapolis Center
Thu 03:59:27 PM 40.6522 -87.3869 168° South 417 480 20,900 976 Climbing Indianapolis Center
Thu 04:00:29 PM 40.5372 -87.3556 168° South 419 482 21,900 968 Climbing Indianapolis Center
Thu 04:01:31 PM 40.4242 -87.3097 163° South 424 488 22,900 966 Climbing Indianapolis Center
Thu 04:02:58 PM 40.2847 -87.1789 144° Southeast 442 509 24,300 926 Climbing Chicago Center
Thu 04:04:00 PM 40.1828 -87.0861 145° Southeast 444 511 25,200 857 Climbing Chicago Center
Thu 04:04:36 PM 40.1208 -87.0267 144° Southeast 445 512 25,700 918 Climbing Indianapolis Center
Thu 04:05:38 PM 40.0231 -86.8767 130° Southeast 453 521 26,700 829 Climbing Indianapolis Center
Thu 04:06:39 PM 39.9514 -86.7367 124° Southeast 461 531 27,400 683 Climbing Indianapolis Center
Thu 04:07:41 PM 39.8797 -86.5981 124° Southeast 461 531 28,100 704 Climbing Indianapolis Center
Thu 04:10:12 PM 39.6300 -86.3542 143° Southeast 439 505 29,900 673 Climbing Chicago Center
Thu 04:11:15 PM 39.5192 -86.2811 153° Southeast 449 517 30,500 688 Climbing Chicago Center
Thu 04:11:48 PM 39.4542 -86.2378 153° Southeast 449 517 31,000 821 Climbing Indianapolis Center
Thu 04:12:50 PM 39.3431 -86.1656 153° Southeast 449 517 31,800 649 Climbing Indianapolis Center
Thu 04:14:53 PM 39.1208 -86.0222 158° South 449 517 33,000 389 Climbing Indianapolis Center
Thu 04:15:55 PM 39.0067 -85.9472 153° Southeast 455 524 33,000  Level Indianapolis Center
Thu 04:16:56 PM 38.8669 -85.8594 154° Southeast 465 535 33,000  Level Indianapolis Center
Thu 04:19:00 PM 38.6397 -85.7150 157° South 457 526 33,000  Level Indianapolis Center
Thu 04:20:01 PM 38.5333 -85.6483 154° Southeast 456 525 33,000  Level Indianapolis Center
Thu 04:22:05 PM 38.2825 -85.4894 154° Southeast 456 525 33,000  Level Indianapolis Center
Thu 04:23:06 PM 38.1686 -85.4178 154° Southeast 456 525 33,000 -341 Level Indianapolis Center
Thu 04:24:08 PM 38.0542 -85.3456 154° Southeast 456 525 32,300 -774 Descending Indianapolis Center
Thu 04:25:10 PM 37.9403 -85.2753 154° Southeast 456 525 31,400 -422 Descending Indianapolis Center
Thu 04:27:13 PM 37.7094 -85.1497 157° South 431 496 31,000 -130 Descending Indianapolis Center
Thu 04:28:15 PM 37.5958 -85.0975 160° South 432 497 31,000 -244 Level Indianapolis Center
Thu 04:29:16 PM 37.4803 -85.0447 160° South 435 501 30,500 -811 Descending Indianapolis Center
Thu 04:31:20 PM 37.2489 -84.9464 142° Southeast 436 502 28,500 -973 Descending Indianapolis Center
Thu 04:32:21 PM 37.1294 -84.8969 162° South 446 513 27,500 -1,024 Descending Indianapolis Center
Thu 04:33:23 PM 36.9847 -84.8394 162° South 471 542 26,400 -1,306 Descending Indianapolis Center
Thu 04:34:25 PM 36.8697 -84.7444 147° Southeast 485 558 24,800 -2,103 Descending Indianapolis Center
Thu 04:36:17 PM 36.6597 -84.5978 151° Southeast 480 552 20,300 -2,442 Descending Atlanta Center
Thu 04:37:17 PM 36.5578 -84.5244 150° Southeast 459 528 17,800 -2,328 Descending Atlanta Center
Thu 04:38:31 PM 36.4358 -84.4344 149° Southeast 425 489 15,100 -2,206 Descending Indianapolis Center
Thu 04:39:33 PM 36.3364 -84.3642 150° Southeast 414 476 12,800 -1,951 Descending Indianapolis Center
Thu 04:40:34 PM 36.2242 -84.2839 150° Southeast 397 457 11,100 -1,467 Descending Indianapolis Center
Thu 04:42:37 PM 36.0706 -84.2036 152° Southeast 294 338 8,300 -1,252 Descending Indianapolis Center
Thu 04:43:17 PM 36.0269 -84.1903 166° South 296 341 7,700 -1,440 Descending Atlanta Center
Thu 04:44:17 PM 35.9539 -84.1669 166° South 278 320 5,900 -1,800 Descending Atlanta Center
Thu 04:45:17 PM 35.8808 -84.1336 160° South 278 320 4,100 -1,269 Descending Atlanta Center
Thu 04:47:45 PM 35.7850 -84.0231 137° Southeast 191 220 1,500 -1,067 Descending Indianapolis Center
Thu 04:48:17 PM 35.8017 -84.0003 48° Northeast 119 137 900 -1,125 Descending Atlanta Center

Login

Don't have an account? Register now (free) for customized features, flight alerts, and more!